sensor_id;sensor_type;location;lat;lon;timestamp;temperature;humidity
71128;SHT30;59249;59.736;30.568;2022-08-19T00:02:15;22.14;71.69
71128;SHT30;59249;59.736;30.568;2022-08-19T00:04:44;22.13;71.56
71128;SHT30;59249;59.736;30.568;2022-08-19T00:11:47;22.06;71.58
71128;SHT30;59249;59.736;30.568;2022-08-19T00:14:17;22.02;71.88
71128;SHT30;59249;59.736;30.568;2022-08-19T00:16:46;21.96;72.10
71128;SHT30;59249;59.736;30.568;2022-08-19T00:23:04;21.88;72.51
71128;SHT30;59249;59.736;30.568;2022-08-19T00:25:33;21.85;72.66
71128;SHT30;59249;59.736;30.568;2022-08-19T00:28:05;21.87;72.89
71128;SHT30;59249;59.736;30.568;2022-08-19T00:30:34;21.85;73.26
71128;SHT30;59249;59.736;30.568;2022-08-19T00:33:03;21.79;73.43
71128;SHT30;59249;59.736;30.568;2022-08-19T00:35:32;21.77;73.65
71128;SHT30;59249;59.736;30.568;2022-08-19T00:38:00;21.70;73.69
71128;SHT30;59249;59.736;30.568;2022-08-19T00:40:29;21.69;73.77
71128;SHT30;59249;59.736;30.568;2022-08-19T00:42:58;21.69;73.85
71128;SHT30;59249;59.736;30.568;2022-08-19T00:49:13;21.63;73.91
71128;SHT30;59249;59.736;30.568;2022-08-19T00:51:48;21.61;74.21
71128;SHT30;59249;59.736;30.568;2022-08-19T00:54:22;21.52;74.15
71128;SHT30;59249;59.736;30.568;2022-08-19T00:56:58;21.52;74.45
71128;SHT30;59249;59.736;30.568;2022-08-19T00:59:28;21.54;74.30
71128;SHT30;59249;59.736;30.568;2022-08-19T01:02:17;21.49;74.48
71128;SHT30;59249;59.736;30.568;2022-08-19T01:04:48;21.47;74.61
71128;SHT30;59249;59.736;30.568;2022-08-19T01:07:17;21.43;74.60
71128;SHT30;59249;59.736;30.568;2022-08-19T01:09:46;21.38;74.87
71128;SHT30;59249;59.736;30.568;2022-08-19T01:12:16;21.36;74.84
71128;SHT30;59249;59.736;30.568;2022-08-19T01:14:47;21.37;75.13
71128;SHT30;59249;59.736;30.568;2022-08-19T01:17:17;21.35;75.10
71128;SHT30;59249;59.736;30.568;2022-08-19T01:19:49;21.31;75.02
71128;SHT30;59249;59.736;30.568;2022-08-19T01:22:27;21.29;75.17
71128;SHT30;59249;59.736;30.568;2022-08-19T01:25:00;21.27;75.24
71128;SHT30;59249;59.736;30.568;2022-08-19T01:27:38;21.24;75.35
71128;SHT30;59249;59.736;30.568;2022-08-19T01:30:13;21.20;75.40
71128;SHT30;59249;59.736;30.568;2022-08-19T01:32:42;21.13;75.59
71128;SHT30;59249;59.736;30.568;2022-08-19T01:35:13;21.17;75.64
71128;SHT30;59249;59.736;30.568;2022-08-19T01:37:51;21.13;75.65
71128;SHT30;59249;59.736;30.568;2022-08-19T01:40:25;21.13;75.60
71128;SHT30;59249;59.736;30.568;2022-08-19T01:42:54;21.11;75.67
71128;SHT30;59249;59.736;30.568;2022-08-19T01:45:26;21.02;76.06
71128;SHT30;59249;59.736;30.568;2022-08-19T01:47:58;20.96;76.09
71128;SHT30;59249;59.736;30.568;2022-08-19T01:50:29;20.91;76.03
71128;SHT30;59249;59.736;30.568;2022-08-19T01:53:01;20.94;76.22
71128;SHT30;59249;59.736;30.568;2022-08-19T01:55:36;20.92;76.05
71128;SHT30;59249;59.736;30.568;2022-08-19T01:58:12;20.91;76.39
71128;SHT30;59249;59.736;30.568;2022-08-19T02:00:43;20.93;76.31
71128;SHT30;59249;59.736;30.568;2022-08-19T02:03:12;20.90;76.32
71128;SHT30;59249;59.736;30.568;2022-08-19T02:05:43;20.89;76.31
71128;SHT30;59249;59.736;30.568;2022-08-19T02:08:14;20.83;76.55
71128;SHT30;59249;59.736;30.568;2022-08-19T02:10:44;20.80;76.62
71128;SHT30;59249;59.736;30.568;2022-08-19T02:13:13;20.79;76.68
71128;SHT30;59249;59.736;30.568;2022-08-19T02:16:07;20.81;76.58
71128;SHT30;59249;59.736;30.568;2022-08-19T02:18:35;20.77;76.80
71128;SHT30;59249;59.736;30.568;2022-08-19T02:21:04;20.76;76.87
71128;SHT30;59249;59.736;30.568;2022-08-19T02:23:35;20.76;76.87
71128;SHT30;59249;59.736;30.568;2022-08-19T02:26:04;20.69;77.01
71128;SHT30;59249;59.736;30.568;2022-08-19T02:28:34;20.73;76.92
71128;SHT30;59249;59.736;30.568;2022-08-19T02:31:09;20.72;76.90
71128;SHT30;59249;59.736;30.568;2022-08-19T02:33:38;20.75;77.01
71128;SHT30;59249;59.736;30.568;2022-08-19T02:36:10;20.68;77.07
71128;SHT30;59249;59.736;30.568;2022-08-19T02:38:45;20.74;77.11
71128;SHT30;59249;59.736;30.568;2022-08-19T02:41:24;20.71;77.10
71128;SHT30;59249;59.736;30.568;2022-08-19T02:43:54;20.73;77.16
71128;SHT30;59249;59.736;30.568;2022-08-19T02:46:46;20.70;77.19
71128;SHT30;59249;59.736;30.568;2022-08-19T02:49:18;20.72;77.30
71128;SHT30;59249;59.736;30.568;2022-08-19T02:51:47;20.71;77.31
71128;SHT30;59249;59.736;30.568;2022-08-19T02:54:18;20.77;77.29
71128;SHT30;59249;59.736;30.568;2022-08-19T02:56:47;20.93;77.08
71128;SHT30;59249;59.736;30.568;2022-08-19T02:59:15;20.99;76.94
71128;SHT30;59249;59.736;30.568;2022-08-19T03:01:49;20.96;76.84
71128;SHT30;59249;59.736;30.568;2022-08-19T03:04:18;20.99;76.74
71128;SHT30;59249;59.736;30.568;2022-08-19T03:06:47;21.02;76.72
71128;SHT30;59249;59.736;30.568;2022-08-19T03:09:19;20.99;76.75
71128;SHT30;59249;59.736;30.568;2022-08-19T03:11:48;20.96;76.81
71128;SHT30;59249;59.736;30.568;2022-08-19T03:14:19;20.96;76.72
71128;SHT30;59249;59.736;30.568;2022-08-19T03:16:51;20.93;76.74
71128;SHT30;59249;59.736;30.568;2022-08-19T03:19:24;20.95;76.64
71128;SHT30;59249;59.736;30.568;2022-08-19T03:21:53;21.02;76.58
71128;SHT30;59249;59.736;30.568;2022-08-19T03:24:24;21.02;76.52
71128;SHT30;59249;59.736;30.568;2022-08-19T03:26:54;21.01;76.58
71128;SHT30;59249;59.736;30.568;2022-08-19T03:29:27;21.02;76.58
71128;SHT30;59249;59.736;30.568;2022-08-19T03:31:59;21.00;76.52
71128;SHT30;59249;59.736;30.568;2022-08-19T03:34:35;21.00;76.45
71128;SHT30;59249;59.736;30.568;2022-08-19T03:37:08;21.03;76.58
71128;SHT30;59249;59.736;30.568;2022-08-19T03:39:40;21.08;76.48
71128;SHT30;59249;59.736;30.568;2022-08-19T03:42:10;21.12;76.53
71128;SHT30;59249;59.736;30.568;2022-08-19T03:44:59;21.20;76.47
71128;SHT30;59249;59.736;30.568;2022-08-19T03:47:29;21.17;76.37
71128;SHT30;59249;59.736;30.568;2022-08-19T03:49:58;21.23;76.39
71128;SHT30;59249;59.736;30.568;2022-08-19T03:52:27;21.26;76.09
71128;SHT30;59249;59.736;30.568;2022-08-19T03:54:57;21.25;76.33
71128;SHT30;59249;59.736;30.568;2022-08-19T03:57:26;21.27;76.36
71128;SHT30;59249;59.736;30.568;2022-08-19T03:59:58;21.28;76.23
71128;SHT30;59249;59.736;30.568;2022-08-19T04:02:39;21.29;76.19
71128;SHT30;59249;59.736;30.568;2022-08-19T04:05:26;21.32;76.21
71128;SHT30;59249;59.736;30.568;2022-08-19T04:07:55;21.41;76.15
71128;SHT30;59249;59.736;30.568;2022-08-19T04:10:28;21.45;76.03
71128;SHT30;59249;59.736;30.568;2022-08-19T04:12:57;21.46;76.19
71128;SHT30;59249;59.736;30.568;2022-08-19T04:15:26;21.51;76.08
71128;SHT30;59249;59.736;30.568;2022-08-19T04:17:58;21.53;76.04
71128;SHT30;59249;59.736;30.568;2022-08-19T04:20:27;21.59;75.87
71128;SHT30;59249;59.736;30.568;2022-08-19T04:22:58;21.66;75.87
71128;SHT30;59249;59.736;30.568;2022-08-19T04:25:38;21.75;75.77
71128;SHT30;59249;59.736;30.568;2022-08-19T04:28:09;21.74;75.68
71128;SHT30;59249;59.736;30.568;2022-08-19T04:30:42;21.85;75.74
71128;SHT30;59249;59.736;30.568;2022-08-19T04:33:14;21.83;75.74
71128;SHT30;59249;59.736;30.568;2022-08-19T04:35:52;21.85;75.65
71128;SHT30;59249;59.736;30.568;2022-08-19T04:38:22;21.95;75.30
71128;SHT30;59249;59.736;30.568;2022-08-19T04:40:53;22.01;75.25
71128;SHT30;59249;59.736;30.568;2022-08-19T04:43:39;22.04;75.01
71128;SHT30;59249;59.736;30.568;2022-08-19T04:46:09;22.05;75.06
71128;SHT30;59249;59.736;30.568;2022-08-19T04:49:00;22.11;74.97
71128;SHT30;59249;59.736;30.568;2022-08-19T04:51:42;22.16;74.96
71128;SHT30;59249;59.736;30.568;2022-08-19T04:54:12;22.20;74.98
71128;SHT30;59249;59.736;30.568;2022-08-19T04:56:52;22.28;74.74
71128;SHT30;59249;59.736;30.568;2022-08-19T04:59:21;22.26;74.78
71128;SHT30;59249;59.736;30.568;2022-08-19T05:01:50;22.34;74.67
71128;SHT30;59249;59.736;30.568;2022-08-19T05:04:20;22.36;74.63
71128;SHT30;59249;59.736;30.568;2022-08-19T05:06:50;22.46;74.67
71128;SHT30;59249;59.736;30.568;2022-08-19T05:09:29;22.54;74.62
71128;SHT30;59249;59.736;30.568;2022-08-19T05:12:19;22.59;74.36
71128;SHT30;59249;59.736;30.568;2022-08-19T05:14:55;22.74;74.12
71128;SHT30;59249;59.736;30.568;2022-08-19T05:17:25;22.75;74.05
71128;SHT30;59249;59.736;30.568;2022-08-19T05:19:59;22.83;73.98
71128;SHT30;59249;59.736;30.568;2022-08-19T05:22:47;22.87;73.86
71128;SHT30;59249;59.736;30.568;2022-08-19T05:25:19;22.97;73.83
71128;SHT30;59249;59.736;30.568;2022-08-19T05:27:50;23.03;73.46
71128;SHT30;59249;59.736;30.568;2022-08-19T05:30:19;23.10;73.59
71128;SHT30;59249;59.736;30.568;2022-08-19T05:33:08;23.15;73.40
71128;SHT30;59249;59.736;30.568;2022-08-19T05:35:39;23.22;72.56
71128;SHT30;59249;59.736;30.568;2022-08-19T05:38:08;23.31;72.44
71128;SHT30;59249;59.736;30.568;2022-08-19T05:40:39;23.40;72.55
71128;SHT30;59249;59.736;30.568;2022-08-19T05:43:10;23.43;71.82
71128;SHT30;59249;59.736;30.568;2022-08-19T05:45:40;23.47;71.74
71128;SHT30;59249;59.736;30.568;2022-08-19T05:48:10;23.54;71.37
71128;SHT30;59249;59.736;30.568;2022-08-19T05:50:40;23.59;71.40
71128;SHT30;59249;59.736;30.568;2022-08-19T05:53:09;23.71;71.29
71128;SHT30;59249;59.736;30.568;2022-08-19T05:55:39;23.79;71.13
71128;SHT30;59249;59.736;30.568;2022-08-19T05:58:09;23.89;71.03
71128;SHT30;59249;59.736;30.568;2022-08-19T06:00:38;23.99;70.71
71128;SHT30;59249;59.736;30.568;2022-08-19T06:03:07;24.10;70.47
71128;SHT30;59249;59.736;30.568;2022-08-19T06:05:40;24.22;70.22
71128;SHT30;59249;59.736;30.568;2022-08-19T06:08:19;24.26;69.95
71128;SHT30;59249;59.736;30.568;2022-08-19T06:11:17;24.36;69.55
71128;SHT30;59249;59.736;30.568;2022-08-19T06:13:52;24.43;69.65
71128;SHT30;59249;59.736;30.568;2022-08-19T06:16:27;24.42;69.87
71128;SHT30;59249;59.736;30.568;2022-08-19T06:19:03;24.52;69.30
71128;SHT30;59249;59.736;30.568;2022-08-19T06:21:36;24.51;69.15
71128;SHT30;59249;59.736;30.568;2022-08-19T06:24:12;24.61;68.28
71128;SHT30;59249;59.736;30.568;2022-08-19T06:26:45;24.69;68.36
71128;SHT30;59249;59.736;30.568;2022-08-19T06:29:18;24.71;68.33
71128;SHT30;59249;59.736;30.568;2022-08-19T06:31:53;24.87;67.75
71128;SHT30;59249;59.736;30.568;2022-08-19T06:34:24;24.92;67.89
71128;SHT30;59249;59.736;30.568;2022-08-19T06:36:56;24.95;67.66
71128;SHT30;59249;59.736;30.568;2022-08-19T06:39:38;25.02;67.53
71128;SHT30;59249;59.736;30.568;2022-08-19T06:42:07;25.13;67.16
71128;SHT30;59249;59.736;30.568;2022-08-19T06:44:43;25.27;66.97
71128;SHT30;59249;59.736;30.568;2022-08-19T06:47:19;25.31;66.61
71128;SHT30;59249;59.736;30.568;2022-08-19T06:49:59;25.37;66.12
71128;SHT30;59249;59.736;30.568;2022-08-19T06:52:34;25.46;66.06
71128;SHT30;59249;59.736;30.568;2022-08-19T06:55:06;25.46;65.73
71128;SHT30;59249;59.736;30.568;2022-08-19T06:57:36;25.56;65.40
71128;SHT30;59249;59.736;30.568;2022-08-19T07:00:09;25.62;65.16
71128;SHT30;59249;59.736;30.568;2022-08-19T07:02:41;25.71;65.26
71128;SHT30;59249;59.736;30.568;2022-08-19T07:05:19;25.70;64.66
71128;SHT30;59249;59.736;30.568;2022-08-19T07:07:48;25.78;64.88
71128;SHT30;59249;59.736;30.568;2022-08-19T07:10:17;25.90;64.75
71128;SHT30;59249;59.736;30.568;2022-08-19T07:12:52;26.03;64.21
71128;SHT30;59249;59.736;30.568;2022-08-19T07:15:23;26.06;63.73
71128;SHT30;59249;59.736;30.568;2022-08-19T07:17:51;26.11;63.66
71128;SHT30;59249;59.736;30.568;2022-08-19T07:20:22;26.13;63.60
71128;SHT30;59249;59.736;30.568;2022-08-19T07:22:55;26.23;63.66
71128;SHT30;59249;59.736;30.568;2022-08-19T07:25:24;26.27;63.42
71128;SHT30;59249;59.736;30.568;2022-08-19T07:27:59;26.35;63.11
71128;SHT30;59249;59.736;30.568;2022-08-19T07:30:30;26.41;62.61
71128;SHT30;59249;59.736;30.568;2022-08-19T07:33:00;26.49;62.69
71128;SHT30;59249;59.736;30.568;2022-08-19T07:35:30;26.53;62.68
71128;SHT30;59249;59.736;30.568;2022-08-19T07:38:00;26.61;62.29
71128;SHT30;59249;59.736;30.568;2022-08-19T07:40:31;26.64;62.32
71128;SHT30;59249;59.736;30.568;2022-08-19T07:42:59;26.66;61.80
71128;SHT30;59249;59.736;30.568;2022-08-19T07:45:30;26.72;61.93
71128;SHT30;59249;59.736;30.568;2022-08-19T07:47:59;26.77;61.93
71128;SHT30;59249;59.736;30.568;2022-08-19T07:50:28;26.83;61.16
71128;SHT30;59249;59.736;30.568;2022-08-19T07:52:57;26.92;61.34
71128;SHT30;59249;59.736;30.568;2022-08-19T07:55:26;26.99;61.33
71128;SHT30;59249;59.736;30.568;2022-08-19T07:58:13;27.04;61.22
71128;SHT30;59249;59.736;30.568;2022-08-19T08:00:47;27.11;61.07
71128;SHT30;59249;59.736;30.568;2022-08-19T08:03:20;27.18;60.97
71128;SHT30;59249;59.736;30.568;2022-08-19T08:06:09;27.20;60.07
71128;SHT30;59249;59.736;30.568;2022-08-19T08:08:56;27.21;60.60
71128;SHT30;59249;59.736;30.568;2022-08-19T08:11:50;27.29;60.53
71128;SHT30;59249;59.736;30.568;2022-08-19T08:14:22;27.37;59.88
71128;SHT30;59249;59.736;30.568;2022-08-19T08:17:05;27.37;59.59
71128;SHT30;59249;59.736;30.568;2022-08-19T08:19:38;27.43;59.86
71128;SHT30;59249;59.736;30.568;2022-08-19T08:22:10;27.51;60.23
71128;SHT30;59249;59.736;30.568;2022-08-19T08:25:03;27.58;60.43
71128;SHT30;59249;59.736;30.568;2022-08-19T08:27:35;27.71;60.54
71128;SHT30;59249;59.736;30.568;2022-08-19T08:30:08;27.73;60.48
71128;SHT30;59249;59.736;30.568;2022-08-19T08:32:40;27.72;59.78
71128;SHT30;59249;59.736;30.568;2022-08-19T08:35:16;27.75;58.87
71128;SHT30;59249;59.736;30.568;2022-08-19T08:37:48;27.78;58.56
71128;SHT30;59249;59.736;30.568;2022-08-19T08:40:26;27.78;58.48
71128;SHT30;59249;59.736;30.568;2022-08-19T08:43:03;27.82;58.17
71128;SHT30;59249;59.736;30.568;2022-08-19T08:45:48;27.91;57.40
71128;SHT30;59249;59.736;30.568;2022-08-19T08:48:35;27.95;56.91
71128;SHT30;59249;59.736;30.568;2022-08-19T08:51:12;27.97;57.04
71128;SHT30;59249;59.736;30.568;2022-08-19T08:53:51;28.09;56.92
71128;SHT30;59249;59.736;30.568;2022-08-19T08:56:23;28.10;56.13
71128;SHT30;59249;59.736;30.568;2022-08-19T08:59:00;28.10;56.01
71128;SHT30;59249;59.736;30.568;2022-08-19T09:01:31;28.19;55.73
71128;SHT30;59249;59.736;30.568;2022-08-19T09:04:04;28.23;55.92
71128;SHT30;59249;59.736;30.568;2022-08-19T09:06:42;28.37;55.86
71128;SHT30;59249;59.736;30.568;2022-08-19T09:09:20;28.48;55.16
71128;SHT30;59249;59.736;30.568;2022-08-19T09:12:09;28.48;54.92
71128;SHT30;59249;59.736;30.568;2022-08-19T09:14:48;28.66;54.71
71128;SHT30;59249;59.736;30.568;2022-08-19T09:17:22;28.67;54.67
71128;SHT30;59249;59.736;30.568;2022-08-19T09:20:08;28.82;53.80
71128;SHT30;59249;59.736;30.568;2022-08-19T09:22:43;28.88;53.63
71128;SHT30;59249;59.736;30.568;2022-08-19T09:25:18;28.95;52.16
71128;SHT30;59249;59.736;30.568;2022-08-19T09:27:55;29.00;52.32
71128;SHT30;59249;59.736;30.568;2022-08-19T09:30:34;29.07;51.30
71128;SHT30;59249;59.736;30.568;2022-08-19T09:33:05;29.12;51.74
71128;SHT30;59249;59.736;30.568;2022-08-19T09:35:36;29.12;50.58
71128;SHT30;59249;59.736;30.568;2022-08-19T09:38:20;29.17;50.44
71128;SHT30;59249;59.736;30.568;2022-08-19T09:40:49;29.26;50.17
71128;SHT30;59249;59.736;30.568;2022-08-19T09:43:18;29.30;49.99
71128;SHT30;59249;59.736;30.568;2022-08-19T09:46:08;29.35;48.35
71128;SHT30;59249;59.736;30.568;2022-08-19T09:48:38;29.33;48.89
71128;SHT30;59249;59.736;30.568;2022-08-19T09:51:11;29.42;48.59
71128;SHT30;59249;59.736;30.568;2022-08-19T09:53:44;29.44;48.64
71128;SHT30;59249;59.736;30.568;2022-08-19T09:56:14;29.51;48.88
71128;SHT30;59249;59.736;30.568;2022-08-19T09:58:46;29.54;47.69
71128;SHT30;59249;59.736;30.568;2022-08-19T10:01:19;29.54;48.20
71128;SHT30;59249;59.736;30.568;2022-08-19T10:03:50;29.59;47.41
71128;SHT30;59249;59.736;30.568;2022-08-19T10:06:25;29.68;48.32
71128;SHT30;59249;59.736;30.568;2022-08-19T10:09:16;29.66;47.33
71128;SHT30;59249;59.736;30.568;2022-08-19T10:12:01;29.77;47.85
71128;SHT30;59249;59.736;30.568;2022-08-19T10:14:32;29.74;47.05
71128;SHT30;59249;59.736;30.568;2022-08-19T10:17:02;29.80;46.97
71128;SHT30;59249;59.736;30.568;2022-08-19T10:19:48;29.84;46.49
71128;SHT30;59249;59.736;30.568;2022-08-19T10:22:23;29.89;46.60
71128;SHT30;59249;59.736;30.568;2022-08-19T10:24:52;30.00;46.59
71128;SHT30;59249;59.736;30.568;2022-08-19T10:27:21;29.98;46.47
71128;SHT30;59249;59.736;30.568;2022-08-19T10:29:53;30.09;45.65
71128;SHT30;59249;59.736;30.568;2022-08-19T10:32:25;30.11;46.59
71128;SHT30;59249;59.736;30.568;2022-08-19T10:35:01;30.22;47.09
71128;SHT30;59249;59.736;30.568;2022-08-19T10:37:34;30.24;46.82
71128;SHT30;59249;59.736;30.568;2022-08-19T10:40:16;30.21;47.01
71128;SHT30;59249;59.736;30.568;2022-08-19T10:42:45;30.25;47.15
71128;SHT30;59249;59.736;30.568;2022-08-19T10:45:13;30.33;47.03
71128;SHT30;59249;59.736;30.568;2022-08-19T10:47:42;30.41;46.81
71128;SHT30;59249;59.736;30.568;2022-08-19T10:50:11;30.42;46.12
71128;SHT30;59249;59.736;30.568;2022-08-19T10:53:04;30.51;46.27
71128;SHT30;59249;59.736;30.568;2022-08-19T10:55:36;30.41;46.28
71128;SHT30;59249;59.736;30.568;2022-08-19T10:58:34;30.44;46.48
71128;SHT30;59249;59.736;30.568;2022-08-19T11:01:03;30.49;46.18
71128;SHT30;59249;59.736;30.568;2022-08-19T11:03:32;30.57;46.19
71128;SHT30;59249;59.736;30.568;2022-08-19T11:06:17;30.63;46.24
71128;SHT30;59249;59.736;30.568;2022-08-19T11:08:48;30.68;45.91
71128;SHT30;59249;59.736;30.568;2022-08-19T11:11:17;30.82;46.09
71128;SHT30;59249;59.736;30.568;2022-08-19T11:13:46;30.75;45.77
71128;SHT30;59249;59.736;30.568;2022-08-19T11:16:17;30.77;45.85
71128;SHT30;59249;59.736;30.568;2022-08-19T11:18:51;30.88;45.85
71128;SHT30;59249;59.736;30.568;2022-08-19T11:21:23;30.89;46.14
71128;SHT30;59249;59.736;30.568;2022-08-19T11:23:58;30.87;46.00
71128;SHT30;59249;59.736;30.568;2022-08-19T11:26:27;30.91;45.99
71128;SHT30;59249;59.736;30.568;2022-08-19T11:28:58;30.91;45.81
71128;SHT30;59249;59.736;30.568;2022-08-19T11:31:35;31.01;45.81
71128;SHT30;59249;59.736;30.568;2022-08-19T11:34:09;31.00;46.30
71128;SHT30;59249;59.736;30.568;2022-08-19T11:36:41;31.10;46.12
71128;SHT30;59249;59.736;30.568;2022-08-19T11:39:16;31.10;44.66
71128;SHT30;59249;59.736;30.568;2022-08-19T11:41:46;31.19;44.66
71128;SHT30;59249;59.736;30.568;2022-08-19T11:44:15;31.21;44.61
71128;SHT30;59249;59.736;30.568;2022-08-19T11:46:45;31.23;44.10
71128;SHT30;59249;59.736;30.568;2022-08-19T11:49:15;31.31;44.10
71128;SHT30;59249;59.736;30.568;2022-08-19T11:51:47;31.35;44.36
71128;SHT30;59249;59.736;30.568;2022-08-19T11:54:18;31.35;43.41
71128;SHT30;59249;59.736;30.568;2022-08-19T11:56:47;31.21;43.35
71128;SHT30;59249;59.736;30.568;2022-08-19T11:59:16;31.24;43.27
71128;SHT30;59249;59.736;30.568;2022-08-19T12:01:45;31.24;43.42
71128;SHT30;59249;59.736;30.568;2022-08-19T12:04:14;31.25;42.95
71128;SHT30;59249;59.736;30.568;2022-08-19T12:06:44;31.31;43.56
71128;SHT30;59249;59.736;30.568;2022-08-19T12:09:13;31.40;43.31
71128;SHT30;59249;59.736;30.568;2022-08-19T12:11:44;31.51;42.97
71128;SHT30;59249;59.736;30.568;2022-08-19T12:14:13;31.54;42.26
71128;SHT30;59249;59.736;30.568;2022-08-19T12:16:45;31.52;42.15
71128;SHT30;59249;59.736;30.568;2022-08-19T12:19:19;31.53;42.46
71128;SHT30;59249;59.736;30.568;2022-08-19T12:21:49;31.60;41.80
71128;SHT30;59249;59.736;30.568;2022-08-19T12:24:20;31.65;41.89
71128;SHT30;59249;59.736;30.568;2022-08-19T12:26:52;31.62;41.62
71128;SHT30;59249;59.736;30.568;2022-08-19T12:29:28;31.63;41.26
71128;SHT30;59249;59.736;30.568;2022-08-19T12:31:58;31.57;41.47
71128;SHT30;59249;59.736;30.568;2022-08-19T12:34:31;31.53;41.27
71128;SHT30;59249;59.736;30.568;2022-08-19T12:37:04;31.60;41.81
71128;SHT30;59249;59.736;30.568;2022-08-19T12:39:36;31.69;42.29
71128;SHT30;59249;59.736;30.568;2022-08-19T12:42:08;31.75;42.34
71128;SHT30;59249;59.736;30.568;2022-08-19T12:44:39;31.82;42.47
71128;SHT30;59249;59.736;30.568;2022-08-19T12:47:11;31.86;42.23
71128;SHT30;59249;59.736;30.568;2022-08-19T12:49:42;31.86;42.04
71128;SHT30;59249;59.736;30.568;2022-08-19T12:52:23;31.82;42.17
71128;SHT30;59249;59.736;30.568;2022-08-19T12:54:54;31.77;42.39
71128;SHT30;59249;59.736;30.568;2022-08-19T12:57:27;31.67;42.25
71128;SHT30;59249;59.736;30.568;2022-08-19T13:00:03;31.70;42.55
71128;SHT30;59249;59.736;30.568;2022-08-19T13:02:35;31.67;42.49
71128;SHT30;59249;59.736;30.568;2022-08-19T13:05:08;31.62;42.44
71128;SHT30;59249;59.736;30.568;2022-08-19T13:07:40;31.65;42.34
71128;SHT30;59249;59.736;30.568;2022-08-19T13:10:14;31.57;42.19
71128;SHT30;59249;59.736;30.568;2022-08-19T13:12:48;31.66;42.44
71128;SHT30;59249;59.736;30.568;2022-08-19T13:15:19;31.73;42.56
71128;SHT30;59249;59.736;30.568;2022-08-19T13:17:52;31.77;42.45
71128;SHT30;59249;59.736;30.568;2022-08-19T13:20:24;31.75;42.86
71128;SHT30;59249;59.736;30.568;2022-08-19T13:22:54;31.75;42.65
71128;SHT30;59249;59.736;30.568;2022-08-19T13:25:25;31.70;42.77
71128;SHT30;59249;59.736;30.568;2022-08-19T13:27:55;31.62;42.48
71128;SHT30;59249;59.736;30.568;2022-08-19T13:30:24;31.62;42.97
71128;SHT30;59249;59.736;30.568;2022-08-19T13:33:10;31.53;42.67
71128;SHT30;59249;59.736;30.568;2022-08-19T13:35:46;31.56;42.55
71128;SHT30;59249;59.736;30.568;2022-08-19T13:38:18;31.63;42.55
71128;SHT30;59249;59.736;30.568;2022-08-19T13:40:49;31.70;42.53
71128;SHT30;59249;59.736;30.568;2022-08-19T13:43:22;31.65;42.44
71128;SHT30;59249;59.736;30.568;2022-08-19T13:45:54;31.61;41.74
71128;SHT30;59249;59.736;30.568;2022-08-19T13:48:25;31.63;41.82
71128;SHT30;59249;59.736;30.568;2022-08-19T13:50:54;31.58;41.69
71128;SHT30;59249;59.736;30.568;2022-08-19T13:53:24;31.54;41.69
71128;SHT30;59249;59.736;30.568;2022-08-19T13:55:52;31.58;41.89
71128;SHT30;59249;59.736;30.568;2022-08-19T13:58:23;31.64;41.95
71128;SHT30;59249;59.736;30.568;2022-08-19T14:00:52;31.63;41.89
71128;SHT30;59249;59.736;30.568;2022-08-19T14:03:20;31.71;41.91
71128;SHT30;59249;59.736;30.568;2022-08-19T14:05:49;31.64;41.59
71128;SHT30;59249;59.736;30.568;2022-08-19T14:08:18;31.61;41.81
71128;SHT30;59249;59.736;30.568;2022-08-19T14:10:47;31.52;42.17
71128;SHT30;59249;59.736;30.568;2022-08-19T14:13:19;31.55;42.19
71128;SHT30;59249;59.736;30.568;2022-08-19T14:15:50;31.54;42.73
71128;SHT30;59249;59.736;30.568;2022-08-19T14:18:19;31.42;42.67
71128;SHT30;59249;59.736;30.568;2022-08-19T14:20:48;31.37;42.84
71128;SHT30;59249;59.736;30.568;2022-08-19T14:23:17;31.35;42.34
71128;SHT30;59249;59.736;30.568;2022-08-19T14:25:46;31.28;41.89
71128;SHT30;59249;59.736;30.568;2022-08-19T14:28:15;31.22;41.75
71128;SHT30;59249;59.736;30.568;2022-08-19T14:30:44;31.24;41.56
71128;SHT30;59249;59.736;30.568;2022-08-19T14:33:14;31.26;41.43
71128;SHT30;59249;59.736;30.568;2022-08-19T14:35:43;31.40;41.59
71128;SHT30;59249;59.736;30.568;2022-08-19T14:38:17;31.48;40.78
71128;SHT30;59249;59.736;30.568;2022-08-19T14:41:11;31.56;40.78
71128;SHT30;59249;59.736;30.568;2022-08-19T14:43:40;31.84;40.95
71128;SHT30;59249;59.736;30.568;2022-08-19T14:46:09;32.06;40.46
71128;SHT30;59249;59.736;30.568;2022-08-19T14:48:44;32.26;40.08
71128;SHT30;59249;59.736;30.568;2022-08-19T14:51:18;32.41;39.84
71128;SHT30;59249;59.736;30.568;2022-08-19T14:53:47;32.58;39.74
71128;SHT30;59249;59.736;30.568;2022-08-19T14:56:20;32.66;40.13
71128;SHT30;59249;59.736;30.568;2022-08-19T14:58:50;32.83;40.08
71128;SHT30;59249;59.736;30.568;2022-08-19T15:01:22;32.94;40.53
71128;SHT30;59249;59.736;30.568;2022-08-19T15:03:52;33.13;40.49
71128;SHT30;59249;59.736;30.568;2022-08-19T15:06:24;33.18;40.54
71128;SHT30;59249;59.736;30.568;2022-08-19T15:08:53;33.31;39.94
71128;SHT30;59249;59.736;30.568;2022-08-19T15:11:27;33.34;39.53
71128;SHT30;59249;59.736;30.568;2022-08-19T15:13:56;33.43;39.06
71128;SHT30;59249;59.736;30.568;2022-08-19T15:16:27;33.59;38.82
71128;SHT30;59249;59.736;30.568;2022-08-19T15:18:58;33.64;38.26
71128;SHT30;59249;59.736;30.568;2022-08-19T15:21:29;33.59;38.15
71128;SHT30;59249;59.736;30.568;2022-08-19T15:24:00;33.54;38.75
71128;SHT30;59249;59.736;30.568;2022-08-19T15:26:29;33.53;38.55
71128;SHT30;59249;59.736;30.568;2022-08-19T15:29:00;33.69;38.80
71128;SHT30;59249;59.736;30.568;2022-08-19T15:31:30;33.83;38.24
71128;SHT30;59249;59.736;30.568;2022-08-19T15:34:05;33.91;37.70
71128;SHT30;59249;59.736;30.568;2022-08-19T15:36:35;33.87;37.91
71128;SHT30;59249;59.736;30.568;2022-08-19T15:39:05;33.98;37.67
71128;SHT30;59249;59.736;30.568;2022-08-19T15:41:36;34.01;37.70
71128;SHT30;59249;59.736;30.568;2022-08-19T15:44:11;33.96;37.51
71128;SHT30;59249;59.736;30.568;2022-08-19T15:46:43;33.89;37.80
71128;SHT30;59249;59.736;30.568;2022-08-19T15:49:17;34.03;38.20
71128;SHT30;59249;59.736;30.568;2022-08-19T15:51:49;34.17;38.18
71128;SHT30;59249;59.736;30.568;2022-08-19T15:54:20;34.26;38.20
71128;SHT30;59249;59.736;30.568;2022-08-19T15:56:51;34.39;38.22
71128;SHT30;59249;59.736;30.568;2022-08-19T15:59:38;34.34;38.16
71128;SHT30;59249;59.736;30.568;2022-08-19T16:02:32;34.64;38.24
71128;SHT30;59249;59.736;30.568;2022-08-19T16:05:25;34.55;38.42